createdAt,value
2019-06-19T04:01:04.359Z,84.38
2019-06-19T04:02:04.522Z,84.38
2019-06-19T04:03:04.694Z,90.00
2019-06-19T04:04:04.866Z,90.00
2019-06-19T04:05:05.030Z,90.00
2019-06-19T04:06:05.198Z,90.00
2019-06-19T04:07:05.374Z,90.00
2019-06-19T04:08:05.539Z,95.63
2019-06-19T04:09:05.725Z,95.63
2019-06-19T04:10:05.880Z,101.25
2019-06-19T04:11:06.054Z,101.25
2019-06-19T04:12:06.225Z,106.88
2019-06-19T04:13:06.404Z,106.88
2019-06-19T04:14:06.903Z,112.50
2019-06-19T04:15:06.743Z,118.13
2019-06-19T04:16:06.924Z,118.13
2019-06-19T04:17:07.052Z,118.13
2019-06-19T04:18:07.225Z,123.75
2019-06-19T04:19:07.385Z,129.38
2019-06-19T04:20:07.591Z,129.38
2019-06-19T04:21:07.720Z,135.00
2019-06-19T04:22:07.888Z,140.63
2019-06-19T04:23:08.058Z,146.25
2019-06-19T04:24:08.232Z,151.88
2019-06-19T04:25:08.397Z,157.50
2019-06-19T04:26:08.563Z,163.13
2019-06-19T04:27:08.731Z,168.75
2019-06-19T04:28:08.905Z,168.75
2019-06-19T04:29:09.079Z,174.38
2019-06-19T04:30:09.257Z,180.00
2019-06-19T04:31:09.428Z,185.63
2019-06-19T04:32:13.521Z,185.63
2019-06-19T04:33:09.778Z,191.25
2019-06-19T04:34:09.952Z,196.88
2019-06-19T04:35:10.152Z,196.88
2019-06-19T04:36:10.283Z,196.88
2019-06-19T04:37:10.451Z,196.88
2019-06-19T04:38:10.626Z,196.88
2019-06-19T04:39:10.799Z,196.88
2019-06-19T04:40:10.969Z,196.88
2019-06-19T04:41:11.209Z,196.88
2019-06-19T04:42:11.331Z,196.88
2019-06-19T04:43:11.452Z,202.50
2019-06-19T04:44:11.644Z,196.88
2019-06-19T04:45:11.790Z,196.88
2019-06-19T04:46:12.010Z,196.88
2019-06-19T04:47:12.124Z,196.88
2019-06-19T04:48:12.291Z,196.88
2019-06-19T04:49:12.462Z,196.88
2019-06-19T04:50:12.631Z,202.50
2019-06-19T04:51:12.783Z,202.50
2019-06-19T04:52:12.956Z,202.50
2019-06-19T04:53:13.111Z,208.13
2019-06-19T04:54:13.283Z,208.13
2019-06-19T04:55:13.452Z,213.75
2019-06-19T04:56:13.666Z,219.38
2019-06-19T04:57:13.833Z,219.38
2019-06-19T04:58:14.020Z,225.00
2019-06-19T04:59:14.207Z,225.00
2019-06-19T05:00:14.342Z,230.63
2019-06-19T05:01:14.505Z,236.25
2019-06-19T05:02:21.236Z,241.88
2019-06-19T05:03:14.843Z,247.50
2019-06-19T05:04:15.020Z,253.13
2019-06-19T05:05:15.176Z,253.13
2019-06-19T05:06:15.335Z,258.75
2019-06-19T05:07:15.488Z,270.00
2019-06-19T05:08:15.658Z,275.63
2019-06-19T05:09:15.827Z,281.25
2019-06-19T05:10:16.024Z,281.25
2019-06-19T05:11:16.174Z,281.25
2019-06-19T05:12:16.323Z,286.88
2019-06-19T05:13:16.577Z,292.50
2019-06-19T05:14:16.650Z,298.13
2019-06-19T05:15:16.838Z,298.13
2019-06-19T05:16:16.974Z,303.75
2019-06-19T05:17:17.189Z,298.13
2019-06-19T05:18:17.313Z,303.75
2019-06-19T05:19:17.467Z,303.75
2019-06-19T05:20:17.671Z,303.75
2019-06-19T05:21:17.835Z,309.38
2019-06-19T05:22:18.001Z,315.00
2019-06-19T05:23:21.008Z,315.00
2019-06-19T05:24:18.349Z,315.00
2019-06-19T05:25:18.503Z,320.63
2019-06-19T05:26:18.676Z,320.63
2019-06-19T05:27:18.826Z,326.25
2019-06-19T05:28:18.996Z,326.25
2019-06-19T05:29:19.175Z,326.25
2019-06-19T05:30:19.320Z,320.63
2019-06-19T05:31:19.511Z,320.63
2019-06-19T05:32:19.684Z,320.63
2019-06-19T05:33:19.845Z,326.25
2019-06-19T05:34:20.003Z,326.25
2019-06-19T05:35:20.168Z,320.63
2019-06-19T05:36:20.356Z,320.63
2019-06-19T05:37:20.527Z,315.00
2019-06-19T05:38:20.697Z,315.00
2019-06-19T05:39:20.939Z,315.00
2019-06-19T05:40:21.024Z,309.38
2019-06-19T05:41:21.186Z,309.38
2019-06-19T05:42:21.348Z,309.38
2019-06-19T05:43:21.516Z,303.75
2019-06-19T05:44:21.680Z,303.75
2019-06-19T05:45:21.839Z,298.13
2019-06-19T05:46:22.012Z,298.13
2019-06-19T05:47:22.193Z,292.50
2019-06-19T05:48:22.338Z,292.50
2019-06-19T05:49:22.501Z,292.50
2019-06-19T05:50:22.688Z,292.50
2019-06-19T05:51:22.836Z,286.88
2019-06-19T05:52:23.001Z,275.63
2019-06-19T05:53:23.165Z,270.00
2019-06-19T05:54:23.326Z,264.38
2019-06-19T05:55:23.498Z,270.00
2019-06-19T05:56:23.657Z,270.00
2019-06-19T05:57:23.841Z,264.38
2019-06-19T05:58:24.116Z,253.13
2019-06-19T05:59:24.256Z,281.25
2019-06-19T06:00:24.354Z,298.13
2019-06-19T06:01:24.489Z,298.13
2019-06-19T06:02:24.652Z,298.13
2019-06-19T06:03:24.855Z,298.13
2019-06-19T06:04:24.982Z,303.75
2019-06-19T06:05:25.188Z,303.75
2019-06-19T06:06:25.327Z,303.75
2019-06-19T06:07:25.523Z,303.75
2019-06-19T06:08:25.682Z,303.75
2019-06-19T06:09:25.855Z,303.75
2019-06-19T06:10:26.041Z,303.75
2019-06-19T06:11:26.208Z,303.75
2019-06-19T06:12:26.389Z,303.75
2019-06-19T06:13:26.573Z,309.38
2019-06-19T06:14:26.706Z,309.38
2019-06-19T06:15:26.843Z,315.00
2019-06-19T06:16:27.008Z,315.00
2019-06-19T06:17:27.185Z,315.00
2019-06-19T06:18:27.353Z,320.63
2019-06-19T06:19:27.505Z,320.63
2019-06-19T06:20:27.676Z,320.63
2019-06-19T06:21:27.834Z,326.25
2019-06-19T06:22:28.006Z,326.25
2019-06-19T06:23:28.186Z,326.25
2019-06-19T06:24:28.340Z,326.25
2019-06-19T06:25:28.505Z,326.25
2019-06-19T06:26:28.673Z,326.25
2019-06-19T06:27:28.827Z,326.25
2019-06-19T06:28:28.992Z,326.25
2019-06-19T06:29:29.162Z,326.25
2019-06-19T06:30:29.323Z,326.25
2019-06-19T06:31:29.466Z,326.25
2019-06-19T06:32:29.671Z,326.25
2019-06-19T06:33:29.835Z,331.88
2019-06-19T06:34:30.023Z,337.50
2019-06-19T06:35:30.222Z,331.88
2019-06-19T06:36:30.393Z,343.13
2019-06-19T06:37:30.569Z,343.13
2019-06-19T06:38:32.872Z,337.50
2019-06-19T06:39:30.925Z,337.50
2019-06-19T06:40:46.965Z,331.88
2019-06-19T06:41:31.274Z,331.88
2019-06-19T06:42:31.456Z,331.88
2019-06-19T06:43:31.638Z,326.25
2019-06-19T06:44:31.798Z,315.00
2019-06-19T06:45:31.975Z,286.88
2019-06-19T06:46:32.138Z,286.88
2019-06-19T06:47:32.312Z,286.88
2019-06-19T06:48:32.485Z,337.50
2019-06-19T06:49:32.704Z,337.50
2019-06-19T06:50:32.839Z,343.13
2019-06-19T06:51:33.051Z,343.13
2019-06-19T06:52:33.172Z,343.13
2019-06-19T06:53:33.346Z,343.13
2019-06-19T06:54:33.527Z,343.13
2019-06-19T06:55:33.692Z,343.13
2019-06-19T06:56:33.864Z,354.38
2019-06-19T06:57:34.040Z,348.75
2019-06-19T06:58:34.218Z,348.75
2019-06-19T06:59:34.381Z,348.75
2019-06-19T07:00:34.871Z,348.75
2019-06-19T07:01:34.746Z,354.38
2019-06-19T07:02:34.909Z,354.38
2019-06-19T07:03:35.089Z,354.38
2019-06-19T07:04:35.258Z,354.38
2019-06-19T07:05:35.416Z,360.00
2019-06-19T07:06:35.573Z,360.00
2019-06-19T07:07:35.752Z,360.00
2019-06-19T07:08:35.908Z,360.00
2019-06-19T07:09:36.068Z,365.63
2019-06-19T07:10:36.261Z,365.63
2019-06-19T07:11:36.434Z,365.63
2019-06-19T07:12:36.614Z,365.63
2019-06-19T07:13:36.754Z,365.63
2019-06-19T07:16:09.021Z,371.25
2019-06-19T07:17:09.190Z,371.25
2019-06-19T07:18:09.370Z,371.25
2019-06-19T07:19:09.546Z,376.88
2019-06-19T07:20:09.740Z,376.88
2019-06-19T07:21:09.930Z,376.88
2019-06-19T07:22:10.089Z,376.88
2019-06-19T07:23:10.266Z,376.88
2019-06-19T07:24:10.427Z,382.50
2019-06-19T07:25:10.595Z,382.50
2019-06-19T07:26:10.791Z,382.50
2019-06-19T07:27:10.954Z,382.50
2019-06-19T07:28:11.130Z,388.13
2019-06-19T07:29:11.356Z,382.50
2019-06-19T07:30:11.510Z,388.13
2019-06-19T07:31:11.655Z,388.13
2019-06-19T07:32:11.826Z,388.13
2019-06-19T07:33:12.008Z,393.75
2019-06-19T07:34:12.184Z,388.13
2019-06-19T07:35:12.360Z,393.75
2019-06-19T07:36:12.530Z,393.75
2019-06-19T07:37:12.707Z,399.38
2019-06-19T07:38:12.978Z,393.75
2019-06-19T07:39:13.048Z,393.75
2019-06-19T07:40:13.271Z,393.75
2019-06-19T07:41:13.408Z,399.38
2019-06-19T07:42:13.576Z,399.38
2019-06-19T07:43:13.749Z,399.38
2019-06-19T07:44:13.925Z,393.75
2019-06-19T07:45:14.107Z,399.38
2019-06-19T07:46:14.269Z,399.38
2019-06-19T07:47:14.441Z,399.38
2019-06-19T07:48:14.644Z,399.38
2019-06-19T07:49:15.473Z,399.38
2019-06-19T07:50:14.956Z,405.00
2019-06-19T07:51:15.136Z,405.00
2019-06-19T07:52:15.300Z,405.00
2019-06-19T07:53:15.476Z,405.00
2019-06-19T07:54:15.654Z,410.63
2019-06-19T07:55:15.825Z,410.63
2019-06-19T07:56:15.993Z,410.63
2019-06-19T07:57:16.151Z,410.63
2019-06-19T07:58:16.320Z,416.25
2019-06-19T07:59:16.497Z,416.25
2019-06-19T08:00:16.664Z,416.25
2019-06-19T08:01:16.886Z,421.88
2019-06-19T08:02:17.012Z,421.88
2019-06-19T08:03:17.170Z,421.88
2019-06-19T08:04:17.329Z,421.88
2019-06-19T08:05:17.516Z,433.13
2019-06-19T08:06:17.686Z,427.50
2019-06-19T08:07:17.847Z,427.50
2019-06-19T08:08:18.037Z,433.13
2019-06-19T08:09:18.202Z,438.75
2019-06-19T08:10:18.375Z,433.13
2019-06-19T08:11:18.579Z,433.13
2019-06-19T08:12:18.732Z,433.13
2019-06-19T08:13:19.114Z,438.75
2019-06-19T08:14:19.065Z,438.75
2019-06-19T08:15:19.383Z,438.75
2019-06-19T08:16:19.418Z,444.38
2019-06-19T08:17:19.583Z,455.63
2019-06-19T08:18:19.747Z,478.13
2019-06-19T08:19:19.918Z,517.50
2019-06-19T08:20:20.096Z,517.50
2019-06-19T08:21:20.261Z,511.88
2019-06-19T08:22:20.442Z,506.25
2019-06-19T08:23:20.613Z,506.25
2019-06-19T08:24:20.774Z,511.88
2019-06-19T08:25:21.578Z,523.13
2019-06-19T08:26:21.121Z,528.75
2019-06-19T08:27:21.286Z,545.63
2019-06-19T08:28:21.446Z,562.50
2019-06-19T08:29:21.610Z,573.75
2019-06-19T08:30:21.790Z,596.25
2019-06-19T08:31:21.983Z,590.63
2019-06-19T08:32:22.215Z,534.38
2019-06-19T08:33:22.293Z,489.38
2019-06-19T08:34:22.467Z,500.63
2019-06-19T08:35:22.641Z,495.00
2019-06-19T08:36:22.798Z,495.00
2019-06-19T08:37:22.959Z,495.00
2019-06-19T08:38:23.208Z,495.00
2019-06-19T08:39:23.300Z,500.63
2019-06-19T08:40:23.475Z,500.63
2019-06-19T08:41:23.635Z,500.63
2019-06-19T08:42:23.803Z,500.63
2019-06-19T08:43:23.971Z,506.25
2019-06-19T08:44:24.207Z,506.25
2019-06-19T08:45:24.351Z,511.88
2019-06-19T08:46:24.512Z,511.88
2019-06-19T08:47:24.706Z,511.88
2019-06-19T08:48:24.884Z,511.88
2019-06-19T08:49:24.993Z,517.50
2019-06-19T08:50:25.163Z,517.50
2019-06-19T08:51:25.340Z,517.50
2019-06-19T08:52:25.518Z,523.13
2019-06-19T08:53:25.673Z,523.13
2019-06-19T08:54:25.893Z,528.75
2019-06-19T08:55:26.022Z,528.75
2019-06-19T08:56:26.201Z,540.00
2019-06-19T08:57:26.361Z,551.25
2019-06-19T08:58:28.384Z,545.63
2019-06-19T08:59:26.702Z,551.25
2019-06-19T09:00:26.862Z,551.25
2019-06-19T09:01:27.021Z,551.25
2019-06-19T09:02:27.222Z,551.25
2019-06-19T09:03:27.363Z,551.25
2019-06-19T09:04:34.801Z,551.25
2019-06-19T09:05:27.706Z,551.25
2019-06-19T09:06:27.878Z,556.88
2019-06-19T09:07:28.045Z,551.25
2019-06-19T09:08:28.202Z,556.88
2019-06-19T09:09:30.599Z,562.50
2019-06-19T09:10:28.542Z,562.50
2019-06-19T09:11:28.710Z,568.13
2019-06-19T09:12:28.880Z,568.13
2019-06-19T09:13:29.051Z,568.13
2019-06-19T09:14:29.220Z,573.75
2019-06-19T09:15:29.395Z,573.75
2019-06-19T09:16:29.563Z,573.75
2019-06-19T09:17:29.731Z,585.00
2019-06-19T09:18:29.903Z,596.25
2019-06-19T09:19:30.060Z,596.25
2019-06-19T09:20:30.227Z,585.00
2019-06-19T09:21:30.414Z,596.25
2019-06-19T09:22:30.598Z,596.25
2019-06-19T09:23:30.777Z,596.25
2019-06-19T09:24:30.909Z,596.25
2019-06-19T09:25:31.094Z,601.88
2019-06-19T09:26:31.260Z,601.88
2019-06-19T09:27:31.423Z,596.25
2019-06-19T09:28:31.606Z,596.25
2019-06-19T09:29:31.782Z,590.63
2019-06-19T09:30:31.946Z,590.63
2019-06-19T09:31:32.114Z,596.25
2019-06-19T09:32:32.286Z,585.00
2019-06-19T09:33:32.462Z,585.00
2019-06-19T09:34:32.615Z,590.63
2019-06-19T09:35:32.785Z,585.00
2019-06-19T09:36:32.960Z,585.00
2019-06-19T09:37:33.145Z,579.38
2019-06-19T09:38:33.290Z,579.38
2019-06-19T09:39:33.490Z,573.75
2019-06-19T09:40:33.654Z,579.38
2019-06-19T09:41:33.845Z,585.00
2019-06-19T09:42:34.010Z,573.75
2019-06-19T09:43:34.223Z,573.75
2019-06-19T09:44:34.384Z,573.75
2019-06-19T09:45:34.565Z,573.75
2019-06-19T09:46:34.737Z,579.38
2019-06-19T09:47:34.921Z,585.00
2019-06-19T09:48:35.093Z,573.75
2019-06-19T09:49:35.254Z,573.75
2019-06-19T09:50:35.455Z,573.75
2019-06-19T09:51:35.646Z,573.75
2019-06-19T09:52:35.788Z,573.75
2019-06-19T09:53:35.957Z,573.75
2019-06-19T09:54:36.136Z,579.38
2019-06-19T09:55:36.297Z,585.00
2019-06-19T09:56:36.482Z,585.00
2019-06-19T09:57:36.641Z,590.63
2019-06-19T09:58:36.799Z,590.63
2019-06-19T09:59:39.009Z,596.25
2019-06-19T10:00:37.131Z,590.63
2019-06-19T10:01:37.327Z,590.63
2019-06-19T10:02:37.478Z,601.88
2019-06-19T10:03:37.665Z,596.25
2019-06-19T10:04:37.977Z,590.63
2019-06-19T10:05:38.015Z,590.63
2019-06-19T10:06:38.186Z,590.63
2019-06-19T10:07:38.338Z,607.50
2019-06-19T10:08:38.503Z,883.13
2019-06-19T10:09:38.675Z,1395.00
2019-06-19T10:10:38.839Z,1884.38
2019-06-19T10:11:39.030Z,2261.25
2019-06-19T10:12:39.191Z,2351.25
2019-06-19T10:13:39.399Z,2379.38
2019-06-19T10:14:39.581Z,2379.38
2019-06-19T10:15:39.756Z,2396.25
2019-06-19T10:16:39.929Z,2418.75
2019-06-19T10:17:40.086Z,2452.50
2019-06-19T10:18:40.241Z,2491.88
2019-06-19T10:19:40.426Z,2503.13
2019-06-19T10:20:40.581Z,2553.75
2019-06-19T10:21:40.749Z,2576.25
2019-06-19T10:22:40.927Z,2565.00
2019-06-19T10:23:41.105Z,2559.38
2019-06-19T10:24:41.270Z,2565.00
2019-06-19T10:25:41.430Z,2570.63
2019-06-19T10:26:41.618Z,2565.00
2019-06-19T10:27:41.757Z,2610.00
2019-06-19T10:28:41.937Z,2632.50
2019-06-19T10:29:42.111Z,2643.75
2019-06-19T10:30:42.273Z,2638.13
2019-06-19T10:31:42.439Z,2711.25
2019-06-19T10:32:42.614Z,2688.75
2019-06-19T10:33:42.767Z,2705.63
2019-06-19T10:34:42.964Z,2745.00
2019-06-19T10:35:43.143Z,2773.13
2019-06-19T10:36:43.300Z,2778.75
2019-06-19T10:37:43.474Z,2829.38
2019-06-19T10:38:43.659Z,2857.50
2019-06-19T10:39:43.814Z,2868.75
2019-06-19T10:40:44.025Z,2880.00
2019-06-19T10:41:44.162Z,2885.63
2019-06-19T10:42:44.336Z,2891.25
2019-06-19T10:43:44.519Z,2868.75
2019-06-19T10:44:44.692Z,2857.50
2019-06-19T10:45:44.869Z,2790.00
2019-06-19T10:46:45.038Z,2790.00
2019-06-19T10:47:45.210Z,2773.13
2019-06-19T10:48:45.378Z,2733.75
2019-06-19T10:49:45.540Z,2767.50
2019-06-19T10:50:45.701Z,2750.63
2019-06-19T10:51:48.960Z,2761.88
2019-06-19T10:52:46.036Z,2818.13
2019-06-19T10:53:46.204Z,2874.38
2019-06-19T10:54:46.378Z,2919.38
2019-06-19T10:55:46.546Z,2941.88
2019-06-19T10:56:46.717Z,2970.00
2019-06-19T10:57:46.893Z,3003.75
2019-06-19T10:58:47.065Z,3026.25
2019-06-19T10:59:47.250Z,2992.50
2019-06-19T11:00:47.435Z,3020.63
2019-06-19T11:01:47.615Z,3031.88
2019-06-19T11:02:47.796Z,3037.50
2019-06-19T11:03:47.990Z,3048.75
2019-06-19T11:04:48.143Z,3060.00
2019-06-19T11:05:48.326Z,3031.88
2019-06-19T11:06:48.499Z,3071.25
2019-06-19T11:07:48.690Z,3127.50
2019-06-19T11:08:48.850Z,3155.63
2019-06-19T11:09:49.026Z,3178.13
2019-06-19T11:10:49.211Z,3200.63
2019-06-19T11:11:49.396Z,3178.13
2019-06-19T11:12:49.579Z,3223.13
2019-06-19T11:13:49.759Z,3245.63
2019-06-19T11:14:49.924Z,3245.63
2019-06-19T11:15:50.089Z,3256.88
2019-06-19T11:16:50.365Z,3234.38
2019-06-19T11:17:50.476Z,3256.88
2019-06-19T11:18:50.654Z,3279.38
2019-06-19T11:19:50.838Z,3313.13
2019-06-19T11:20:51.009Z,3341.25
2019-06-19T11:21:51.186Z,3380.63
2019-06-19T11:22:51.365Z,2812.50
2019-06-19T11:23:51.560Z,3178.13
2019-06-19T11:24:51.721Z,3346.88
2019-06-19T11:25:51.914Z,3330.00
2019-06-19T11:26:52.062Z,3318.75
2019-06-19T11:27:52.348Z,3358.13
2019-06-19T11:28:52.408Z,3408.75
2019-06-19T11:29:52.587Z,3442.50
2019-06-19T11:30:52.841Z,3453.75
2019-06-19T11:31:52.949Z,3481.88
2019-06-19T11:32:53.130Z,3481.88
2019-06-19T11:33:53.295Z,3341.25
2019-06-19T11:34:53.482Z,3504.38
2019-06-19T11:35:57.220Z,3526.88
2019-06-19T11:36:53.826Z,3493.13
2019-06-19T11:37:54.009Z,3470.63
2019-06-19T11:38:54.202Z,3453.75
2019-06-19T11:39:54.361Z,3431.25
2019-06-19T11:40:54.542Z,3453.75
2019-06-19T11:41:54.743Z,3453.75
2019-06-19T11:42:54.893Z,3498.75
2019-06-19T11:43:55.077Z,3481.88
2019-06-19T11:44:55.249Z,3498.75
2019-06-19T11:45:55.425Z,3515.63
2019-06-19T11:46:55.610Z,2148.75
2019-06-19T11:47:55.800Z,3526.88
2019-06-19T11:48:55.981Z,3560.63
2019-06-19T11:49:56.151Z,3391.88
2019-06-19T11:50:56.353Z,3566.25
2019-06-19T11:51:56.527Z,3532.50
2019-06-19T11:52:56.708Z,3459.38
2019-06-19T11:53:56.884Z,776.25
2019-06-19T11:54:57.055Z,3110.63
2019-06-19T11:55:57.233Z,3133.13
2019-06-19T11:56:57.439Z,3155.63
2019-06-19T11:57:57.614Z,860.63
2019-06-19T11:58:57.843Z,3296.25
2019-06-19T11:59:57.975Z,736.88
2019-06-19T12:00:58.158Z,1541.25
2019-06-19T12:01:58.334Z,3459.38
2019-06-19T12:02:58.539Z,3487.50
2019-06-19T12:03:58.736Z,3577.50
2019-06-19T12:04:58.893Z,3661.88
2019-06-19T12:06:12.478Z,3673.13
2019-06-19T12:06:59.259Z,3588.75
2019-06-19T12:07:59.446Z,3600.00
2019-06-19T12:08:59.625Z,3571.88
2019-06-19T12:09:59.823Z,3611.25
2019-06-19T12:11:00.010Z,3628.13
2019-06-19T12:12:00.178Z,3639.38
2019-06-19T12:13:00.359Z,3650.63
2019-06-19T12:14:00.559Z,3695.63
2019-06-19T12:15:00.728Z,3706.88
2019-06-19T12:16:00.901Z,3690.00
2019-06-19T12:17:01.136Z,3678.75
2019-06-19T12:18:01.274Z,3684.38
2019-06-19T12:19:01.428Z,3712.50
2019-06-19T12:20:01.597Z,3735.00
2019-06-19T12:21:01.814Z,3723.75
2019-06-19T12:22:01.973Z,3729.38
2019-06-19T12:23:02.184Z,3746.25
2019-06-19T12:24:02.348Z,3740.63
2019-06-19T12:25:02.520Z,3718.13
2019-06-19T12:26:02.837Z,3695.63
2019-06-19T12:27:02.898Z,3757.50
2019-06-19T12:28:03.076Z,3763.13
2019-06-19T12:29:03.242Z,3763.13
2019-06-19T12:30:06.546Z,3791.25
2019-06-19T12:31:03.604Z,3808.13
2019-06-19T12:32:03.787Z,3802.50
2019-06-19T12:33:03.959Z,3796.88
2019-06-19T12:34:04.280Z,3785.63
2019-06-19T12:35:04.378Z,3808.13
2019-06-19T12:36:04.510Z,3791.25
2019-06-19T12:37:04.694Z,3785.63
2019-06-19T12:38:04.875Z,3796.88
2019-06-19T12:39:05.065Z,3836.25
2019-06-19T12:40:05.235Z,3853.13
2019-06-19T12:41:05.417Z,3864.38
2019-06-19T12:42:05.607Z,3881.25
2019-06-19T12:43:05.790Z,3858.75
2019-06-19T12:44:05.948Z,3830.63
2019-06-19T12:45:06.159Z,3830.63
2019-06-19T12:46:06.316Z,3830.63
2019-06-19T12:47:06.500Z,3825.00
2019-06-19T12:48:06.689Z,3841.88
2019-06-19T12:49:06.870Z,3858.75
2019-06-19T12:50:07.045Z,3853.13
2019-06-19T12:51:07.226Z,3853.13
2019-06-19T12:52:07.422Z,3841.88
2019-06-19T12:53:07.608Z,3785.63
2019-06-19T12:54:07.786Z,3796.88
2019-06-19T12:55:08.017Z,3791.25
2019-06-19T12:56:08.163Z,3802.50
2019-06-19T12:57:08.341Z,3836.25
2019-06-19T12:58:08.520Z,3909.38
2019-06-19T12:59:08.707Z,3931.88
2019-06-19T13:00:08.890Z,3926.25
2019-06-19T13:01:09.063Z,3892.50
2019-06-19T13:02:09.254Z,3926.25
2019-06-19T13:03:09.461Z,3898.13
2019-06-19T13:04:09.585Z,3960.00
2019-06-19T13:05:09.767Z,3976.88
2019-06-19T13:06:09.967Z,3931.88
2019-06-19T13:07:10.131Z,3864.38
2019-06-19T13:08:10.304Z,3836.25
2019-06-19T13:09:10.501Z,3841.88
2019-06-19T13:10:13.627Z,3870.00
2019-06-19T13:11:10.854Z,3864.38
2019-06-19T13:12:11.336Z,3858.75
2019-06-19T13:13:11.292Z,3853.13
2019-06-19T13:14:11.403Z,3847.50
2019-06-19T13:15:11.581Z,3841.88
2019-06-19T13:16:11.767Z,3864.38
2019-06-19T13:17:11.990Z,3847.50
2019-06-19T13:18:12.165Z,3841.88
2019-06-19T13:19:12.341Z,3892.50
2019-06-19T13:20:12.527Z,3931.88
2019-06-19T13:21:12.704Z,3971.25
2019-06-19T13:22:12.883Z,3960.00
2019-06-19T13:23:13.051Z,3926.25
2019-06-19T13:24:13.220Z,3909.38
2019-06-19T13:25:13.389Z,3931.88
2019-06-19T13:26:13.588Z,3915.00
2019-06-19T13:27:13.773Z,3909.38
2019-06-19T13:28:14.027Z,3898.13
2019-06-19T13:29:14.112Z,3903.75
2019-06-19T13:30:14.280Z,3915.00
2019-06-19T13:31:14.462Z,3903.75
2019-06-19T13:32:14.627Z,3892.50
2019-06-19T13:33:14.803Z,3892.50
2019-06-19T13:34:14.990Z,3886.88
2019-06-19T13:35:15.167Z,3881.25
2019-06-19T13:36:15.403Z,3886.88
2019-06-19T13:37:15.555Z,3909.38
2019-06-19T13:39:47.842Z,3920.63
2019-06-19T13:40:48.028Z,3971.25
2019-06-19T13:41:48.207Z,3982.50
2019-06-19T13:42:48.395Z,3937.50
2019-06-19T13:43:48.587Z,3903.75
2019-06-19T13:44:48.774Z,3864.38
2019-06-19T13:45:48.962Z,3841.88
2019-06-19T13:46:49.139Z,3875.63
2019-06-19T13:47:49.320Z,3881.25
2019-06-19T13:48:49.506Z,3903.75
2019-06-19T13:49:49.693Z,3926.25
2019-06-19T13:50:49.881Z,3931.88
2019-06-19T13:51:50.061Z,3954.38
2019-06-19T13:52:50.259Z,3920.63
2019-06-19T13:53:50.439Z,3920.63
2019-06-19T13:54:50.629Z,3898.13
2019-06-19T13:55:50.817Z,3870.00
2019-06-19T13:56:50.996Z,3864.38
2019-06-19T13:57:51.181Z,3836.25
2019-06-19T13:58:51.429Z,3836.25
2019-06-19T13:59:51.553Z,3841.88
2019-06-19T14:00:51.738Z,3830.63
2019-06-19T14:01:51.930Z,3813.75
2019-06-19T14:02:52.116Z,3780.00
2019-06-19T14:03:52.301Z,3785.63
2019-06-19T14:04:52.488Z,3757.50
2019-06-19T14:05:52.670Z,3757.50
2019-06-19T14:06:52.858Z,3673.13
2019-06-19T14:07:53.948Z,3661.88
2019-06-19T14:08:53.227Z,3656.25
2019-06-19T14:09:53.416Z,3622.50
2019-06-19T14:10:53.602Z,3588.75
2019-06-19T14:11:53.778Z,3577.50
2019-06-19T14:12:53.969Z,3577.50
2019-06-19T14:13:54.144Z,3583.13
2019-06-19T14:14:54.335Z,3577.50
2019-06-19T14:15:54.508Z,3616.88
2019-06-19T14:16:54.724Z,3611.25
2019-06-19T14:17:54.901Z,3639.38
2019-06-19T14:18:55.090Z,3622.50
2019-06-19T14:19:55.233Z,3600.00
2019-06-19T14:20:55.415Z,3577.50
2019-06-19T14:21:55.683Z,3571.88
2019-06-19T14:22:55.771Z,3560.63
2019-06-19T14:23:55.945Z,3549.38
2019-06-19T14:24:56.127Z,3504.38
2019-06-19T14:25:56.321Z,3510.00
2019-06-19T14:26:56.501Z,3487.50
2019-06-19T14:27:56.677Z,3510.00
2019-06-19T14:28:59.772Z,3504.38
2019-06-19T14:29:57.058Z,3515.63
2019-06-19T14:30:57.257Z,3532.50
2019-06-19T14:32:01.752Z,3549.38
2019-06-19T14:32:57.603Z,3543.75
2019-06-19T14:33:57.788Z,3504.38
2019-06-19T14:34:57.956Z,3481.88
2019-06-19T14:35:58.168Z,3436.88
2019-06-19T14:36:58.334Z,3386.25
2019-06-19T14:37:58.526Z,3375.00
2019-06-19T14:38:58.717Z,3352.50
2019-06-19T14:39:58.901Z,3346.88
2019-06-19T14:40:59.081Z,3358.13
2019-06-19T14:41:59.248Z,3358.13
2019-06-19T14:42:59.428Z,3346.88
2019-06-19T14:43:59.625Z,3307.50
2019-06-19T14:44:59.800Z,3262.50
2019-06-19T14:45:59.983Z,3273.75
2019-06-19T14:47:00.162Z,3206.25
2019-06-19T14:48:00.346Z,3223.13
2019-06-19T14:49:00.519Z,3189.38
2019-06-19T14:50:00.743Z,3200.63
2019-06-19T14:51:00.935Z,3183.75
2019-06-19T14:52:01.110Z,3166.88
2019-06-19T14:53:01.300Z,3155.63
2019-06-19T14:54:01.443Z,3144.38
2019-06-19T14:55:01.621Z,3166.88
2019-06-19T14:56:01.802Z,3172.50
2019-06-19T14:57:01.992Z,3144.38
2019-06-19T14:58:02.167Z,3088.13
2019-06-19T14:59:02.367Z,2964.38
2019-06-19T15:00:02.532Z,2998.13
2019-06-19T15:01:02.698Z,3015.00
2019-06-19T15:02:02.893Z,2992.50
2019-06-19T15:03:03.062Z,2913.75
2019-06-19T15:04:03.245Z,2891.25
2019-06-19T15:05:03.432Z,2851.88
2019-06-19T15:06:03.681Z,2750.63
2019-06-19T15:07:03.794Z,2784.38
2019-06-19T15:08:03.958Z,2745.00
2019-06-19T15:09:04.125Z,2795.63
2019-06-19T15:10:04.369Z,2818.13
2019-06-19T15:11:04.484Z,2840.63
2019-06-19T15:12:04.673Z,2604.38
2019-06-19T15:13:04.854Z,2435.63
2019-06-19T15:14:05.041Z,2553.75
2019-06-19T15:15:05.217Z,2621.25
2019-06-19T15:16:05.461Z,2593.13
2019-06-19T15:17:05.556Z,2542.50
2019-06-19T15:18:05.737Z,2508.75
2019-06-19T15:19:05.904Z,2520.00
2019-06-19T15:20:06.089Z,2553.75
2019-06-19T15:21:06.264Z,2469.38
2019-06-19T15:22:06.448Z,2430.00
2019-06-19T15:23:06.648Z,2520.00
2019-06-19T15:24:06.803Z,2520.00
2019-06-19T15:25:06.993Z,2621.25
2019-06-19T15:26:07.180Z,2683.13
2019-06-19T15:27:07.349Z,675.00
2019-06-19T15:28:07.517Z,2497.50
2019-06-19T15:29:07.701Z,2621.25
2019-06-19T15:30:07.918Z,2610.00
2019-06-19T15:31:08.049Z,2615.63
2019-06-19T15:32:08.235Z,2525.63
2019-06-19T15:33:08.406Z,2435.63
2019-06-19T15:34:08.575Z,573.75
2019-06-19T15:35:08.747Z,596.25
2019-06-19T15:36:08.934Z,759.38
2019-06-19T15:37:09.094Z,2013.75
2019-06-19T15:38:12.272Z,2036.25
2019-06-19T15:39:09.462Z,579.38
2019-06-19T15:40:09.674Z,1366.88
2019-06-19T15:41:09.822Z,1614.38
2019-06-19T15:42:09.997Z,1260.00
2019-06-19T15:43:10.177Z,1181.25
2019-06-19T15:44:10.348Z,1186.88
2019-06-19T15:45:10.557Z,1063.13
2019-06-19T15:46:10.717Z,1074.38
2019-06-19T15:47:10.947Z,928.13
2019-06-19T15:48:11.094Z,787.50
2019-06-19T15:49:11.267Z,540.00
2019-06-19T15:50:11.441Z,528.75
2019-06-19T15:51:11.621Z,573.75
2019-06-19T15:53:43.910Z,489.38
2019-06-19T15:54:44.083Z,579.38
2019-06-19T15:55:44.258Z,511.88
2019-06-19T15:56:44.438Z,601.88
2019-06-19T15:57:44.624Z,607.50
2019-06-19T15:58:44.802Z,624.38
2019-06-19T15:59:44.985Z,601.88
2019-06-19T16:00:45.168Z,573.75
2019-06-19T16:01:45.350Z,551.25
2019-06-19T16:02:45.527Z,540.00
2019-06-19T16:03:45.711Z,534.38
2019-06-19T16:04:45.906Z,523.13
2019-06-19T16:05:46.113Z,523.13
2019-06-19T16:06:46.263Z,511.88
2019-06-19T16:07:46.474Z,506.25
2019-06-19T16:08:46.678Z,511.88
2019-06-19T16:09:46.777Z,506.25
2019-06-19T16:10:46.977Z,528.75
2019-06-19T16:11:47.112Z,534.38
2019-06-19T16:12:47.283Z,540.00
2019-06-19T16:13:47.464Z,551.25
2019-06-19T16:14:47.634Z,556.88
2019-06-19T16:15:47.812Z,562.50
2019-06-19T16:16:48.067Z,545.63
2019-06-19T16:17:48.168Z,528.75
2019-06-19T16:18:48.356Z,511.88
2019-06-19T16:19:48.536Z,495.00
2019-06-19T16:20:48.703Z,483.75
2019-06-19T16:21:48.877Z,478.13
2019-06-19T16:22:49.022Z,478.13
2019-06-19T16:23:49.191Z,483.75
2019-06-19T16:24:49.364Z,483.75
2019-06-19T16:25:49.544Z,478.13